Time;durP1;ratioP1;P1;durP2;ratioP2;P2;SDS_P1;SDS_P2;PMS_P1;PMS_P2;Temp;Humidity;BMP_temperature;BMP_pressure;BME280_temperature;BME280_humidity;BME280_pressure;Samples;Min_cycle;Max_cycle;Signal;HPM_P1;HPM_P2
2022/07/31 00:00:28;;;;;;;6.43;5.63;;;21.00;27.10;;;;;;2607789;39;20876;-74
2022/07/31 00:02:54;;;;;;;6.63;6.03;;;20.90;27.00;;;;;;2607220;54;20415;-73
2022/07/31 00:05:20;;;;;;;15.20;6.37;;;20.90;29.00;;;;;;2607842;47;20181;-74
2022/07/31 00:07:46;;;;;;;6.00;5.50;;;20.90;27.50;;;;;;2608676;54;20189;-75
2022/07/31 00:10:11;;;;;;;6.30;5.80;;;20.80;29.00;;;;;;2606439;54;20443;-74
2022/07/31 00:12:37;;;;;;;6.37;5.70;;;20.90;28.50;;;;;;2607172;54;20628;-74
2022/07/31 00:15:05;;;;;;;6.13;5.53;;;20.80;29.80;;;;;;2608233;39;20231;-74
2022/07/31 00:17:30;;;;;;;5.87;5.37;;;20.80;28.50;;;;;;2608068;54;20178;-74
2022/07/31 00:19:56;;;;;;;6.10;5.60;;;20.80;29.60;;;;;;2606905;54;20459;-75
2022/07/31 00:22:22;;;;;;;6.57;6.00;;;20.80;29.30;;;;;;2607700;46;20184;-74
2022/07/31 00:24:48;;;;;;;5.90;5.30;;;20.70;31.50;;;;;;2606181;39;20517;-74
2022/07/31 00:27:13;;;;;;;9.37;6.57;;;20.70;30.60;;;;;;2607627;47;20253;-74
2022/07/31 00:29:39;;;;;;;6.83;5.70;;;20.70;31.50;;;;;;2606887;47;20171;-74
2022/07/31 00:32:05;;;;;;;6.17;5.57;;;20.70;31.60;;;;;;2607889;54;20968;-74
2022/07/31 00:34:30;;;;;;;6.40;5.83;;;20.50;32.70;;;;;;2605501;47;20172;-74
2022/07/31 00:36:56;;;;;;;5.97;5.57;;;20.60;33.00;;;;;;2607671;54;20179;-74
2022/07/31 00:39:23;;;;;;;10.17;5.50;;;20.50;33.30;;;;;;2605884;39;20428;-74
2022/07/31 00:41:48;;;;;;;6.07;5.60;;;20.40;36.20;;;;;;2608017;39;20236;-74
2022/07/31 00:44:14;;;;;;;6.47;6.07;;;20.30;37.70;;;;;;2608411;31;20589;-74
2022/07/31 00:46:40;;;;;;;5.70;5.40;;;20.20;41.90;;;;;;2607678;39;20521;-74
2022/07/31 00:49:08;;;;;;;6.27;5.73;;;20.00;46.80;;;;;;2607025;54;20179;-74
2022/07/31 00:51:35;;;;;;;5.87;5.47;;;19.90;49.60;;;;;;2607614;54;21014;-74
2022/07/31 00:54:00;;;;;;;5.83;5.43;;;19.80;53.50;;;;;;2606614;39;20475;-74
2022/07/31 00:56:26;;;;;;;5.90;5.50;;;19.80;53.40;;;;;;2606854;39;20586;-74
2022/07/31 00:58:54;;;;;;;6.67;5.43;;;19.60;54.10;;;;;;2613051;54;20680;-78
2022/07/31 01:01:20;;;;;;;8.70;6.37;;;19.50;60.90;;;;;;2614217;39;20660;-73
2022/07/31 01:03:46;;;;;;;5.27;4.97;;;19.40;65.60;;;;;;2614379;39;20870;-73
2022/07/31 01:06:12;;;;;;;6.10;5.60;;;19.20;72.60;;;;;;2613768;54;20438;-76
2022/07/31 01:08:38;;;;;;;5.77;5.17;;;19.20;78.10;;;;;;2612358;54;20162;-77
2022/07/31 01:11:35;;;;;;;6.30;5.70;;;19.10;82.60;;;;;;2613878;54;20157;-78
2022/07/31 01:14:04;;;;;;;5.93;5.53;;;19.00;87.20;;;;;;2610053;39;21235;-77
2022/07/31 01:16:35;;;;;;;6.30;5.87;;;18.90;91.90;;;;;;2605240;47;20972;-77
2022/07/31 01:19:27;;;;;;;9.87;6.90;;;18.80;94.10;;;;;;2605072;39;20495;-78
2022/07/31 01:21:54;;;;;;;6.30;5.80;;;18.80;95.10;;;;;;2606739;31;20646;-78
2022/07/31 01:24:28;;;;;;;5.90;5.40;;;18.80;99.10;;;;;;2604506;39;21171;-77
2022/07/31 01:26:59;;;;;;;5.97;5.57;;;18.60;98.60;;;;;;2605650;54;20435;-76
2022/07/31 01:29:37;;;;;;;6.70;6.00;;;18.60;99.90;;;;;;2605088;54;20427;-77
2022/07/31 01:32:09;;;;;;;6.50;6.10;;;18.60;99.90;;;;;;2606407;39;21643;-76
2022/07/31 01:35:06;;;;;;;7.10;5.37;;;18.50;99.90;;;;;;2604446;54;20458;-77
2022/07/31 01:37:35;;;;;;;6.40;5.80;;;18.40;99.90;;;;;;2606562;54;20746;-77
2022/07/31 01:40:35;;;;;;;6.90;6.40;;;18.50;99.90;;;;;;2606490;54;20483;-78
2022/07/31 01:43:06;;;;;;;6.90;5.97;;;18.60;99.90;;;;;;2607924;47;21024;-77
2022/07/31 01:45:33;;;;;;;10.33;6.63;;;18.60;99.90;;;;;;2607895;47;20465;-77
2022/07/31 01:48:00;;;;;;;6.40;6.00;;;18.50;99.90;;;;;;2608092;39;21471;-78
2022/07/31 01:50:27;;;;;;;10.00;7.57;;;18.50;99.90;;;;;;2608202;39;20487;-78
2022/07/31 01:52:56;;;;;;;7.33;6.63;;;18.50;99.90;;;;;;2607351;46;20467;-77
2022/07/31 01:55:23;;;;;;;7.13;6.63;;;18.50;99.90;;;;;;2607360;39;20879;-78
2022/07/31 01:57:49;;;;;;;6.70;6.20;;;18.50;99.90;;;;;;2607647;54;20954;-77
2022/07/31 02:00:17;;;;;;;7.00;6.40;;;18.50;99.90;;;;;;2607792;39;20922;-77
2022/07/31 02:02:46;;;;;;;7.07;6.37;;;18.50;99.90;;;;;;2608439;31;20668;-78
2022/07/31 02:05:12;;;;;;;6.90;6.40;;;18.60;99.90;;;;;;2607398;39;20545;-78
2022/07/31 02:07:40;;;;;;;6.57;6.03;;;18.60;99.90;;;;;;2606538;54;20430;-78
2022/07/31 02:10:11;;;;;;;7.17;6.57;;;18.70;99.90;;;;;;2606963;39;20690;-79
2022/07/31 02:12:39;;;;;;;7.53;6.37;;;18.70;99.90;;;;;;2607666;54;20464;-78
2022/07/31 02:15:10;;;;;;;7.50;6.87;;;18.80;99.90;;;;;;2612567;54;20439;-77
2022/07/31 02:17:37;;;;;;;8.87;7.87;;;18.70;99.90;;;;;;2606823;54;20428;-79
2022/07/31 02:20:06;;;;;;;9.30;8.60;;;18.80;99.90;;;;;;2612202;54;21073;-79
2022/07/31 02:22:33;;;;;;;9.17;8.27;;;18.80;99.90;;;;;;2612579;54;20976;-77
2022/07/31 02:24:59;;;;;;;7.73;7.13;;;18.80;99.90;;;;;;2614806;54;20433;-77
2022/07/31 02:27:27;;;;;;;8.23;6.70;;;18.70;99.90;;;;;;2614238;54;20426;-77
2022/07/31 02:29:54;;;;;;;10.70;6.97;;;18.60;99.90;;;;;;2615132;54;20463;-78
2022/07/31 02:32:22;;;;;;;8.00;6.70;;;18.60;99.90;;;;;;2613017;54;20442;-82
2022/07/31 02:34:48;;;;;;;7.07;6.50;;;18.50;99.90;;;;;;2607155;54;20432;-82
2022/07/31 02:37:15;;;;;;;6.87;6.37;;;18.40;99.90;;;;;;2608112;54;20430;-82
2022/07/31 02:39:41;;;;;;;6.57;6.13;;;18.30;99.90;;;;;;2608375;47;20482;-83
2022/07/31 02:42:08;;;;;;;6.50;6.00;;;18.40;99.90;;;;;;2608071;39;20496;-82
2022/07/31 02:44:34;;;;;;;6.80;6.30;;;18.40;99.90;;;;;;2609156;47;20458;-83
2022/07/31 02:47:01;;;;;;;6.40;6.00;;;18.50;99.90;;;;;;2609733;54;20531;-82
2022/07/31 02:49:28;;;;;;;5.37;4.97;;;18.50;99.90;;;;;;2608543;54;20439;-81
2022/07/31 02:51:55;;;;;;;6.70;6.20;;;18.50;99.90;;;;;;2606120;54;20440;-73
2022/07/31 02:54:23;;;;;;;6.30;5.80;;;18.50;99.90;;;;;;2607294;39;20846;-73
2022/07/31 02:56:50;;;;;;;5.80;5.40;;;18.40;99.90;;;;;;2604819;47;20435;-72
2022/07/31 02:59:16;;;;;;;6.00;5.60;;;18.40;99.90;;;;;;2606546;54;20442;-73
2022/07/31 03:01:42;;;;;;;6.80;6.20;;;18.30;99.90;;;;;;2607129;39;20518;-73
2022/07/31 03:04:09;;;;;;;6.27;5.67;;;18.40;99.90;;;;;;2606415;54;20181;-73
2022/07/31 03:06:35;;;;;;;6.57;6.17;;;18.30;99.90;;;;;;2604659;39;20550;-74
2022/07/31 03:09:01;;;;;;;6.47;5.87;;;18.30;99.90;;;;;;2606628;54;21358;-74
2022/07/31 03:11:27;;;;;;;6.30;5.73;;;18.40;99.90;;;;;;2606918;39;20966;-74
2022/07/31 03:13:57;;;;;;;5.93;5.43;;;18.30;99.90;;;;;;2606146;39;20606;-74
2022/07/31 03:16:23;;;;;;;6.07;5.57;;;18.30;99.90;;;;;;2606557;54;20447;-73
2022/07/31 03:18:49;;;;;;;6.70;6.20;;;18.30;99.90;;;;;;2605733;54;20434;-74
2022/07/31 03:21:17;;;;;;;6.07;5.67;;;18.20;99.90;;;;;;2605305;31;20636;-73
2022/07/31 03:23:44;;;;;;;5.63;5.23;;;18.10;99.90;;;;;;2606645;47;20443;-74
2022/07/31 03:26:10;;;;;;;6.70;6.20;;;18.20;99.90;;;;;;2606987;54;20443;-74
2022/07/31 03:28:36;;;;;;;6.00;5.60;;;18.30;99.90;;;;;;2605822;54;20434;-73
2022/07/31 03:31:02;;;;;;;6.37;5.97;;;18.30;99.90;;;;;;2607853;54;20549;-74
2022/07/31 03:33:28;;;;;;;5.90;5.30;;;18.40;99.90;;;;;;2607795;31;20339;-73
2022/07/31 03:35:54;;;;;;;6.47;6.07;;;18.60;99.90;;;;;;2606523;54;20966;-73
2022/07/31 03:38:20;;;;;;;6.90;6.30;;;18.70;99.90;;;;;;2608594;54;20460;-73
2022/07/31 03:40:46;;;;;;;10.27;6.40;;;18.70;99.90;;;;;;2608550;31;20557;-73
2022/07/31 03:43:13;;;;;;;5.97;5.40;;;18.70;99.90;;;;;;2608231;39;20568;-73
2022/07/31 03:45:40;;;;;;;6.20;5.80;;;18.60;99.90;;;;;;2608533;54;20415;-74
2022/07/31 03:48:09;;;;;;;7.67;6.87;;;18.50;99.90;;;;;;2608012;54;20422;-73
2022/07/31 03:50:36;;;;;;;9.23;5.87;;;18.40;99.90;;;;;;2606997;54;20448;-73
2022/07/31 03:53:03;;;;;;;6.27;5.77;;;18.40;99.90;;;;;;2608370;54;20584;-73
2022/07/31 03:55:30;;;;;;;6.20;5.70;;;18.40;99.90;;;;;;2607917;39;21040;-74
2022/07/31 03:57:57;;;;;;;6.13;5.73;;;18.40;99.90;;;;;;2607234;54;20454;-74
2022/07/31 04:00:26;;;;;;;6.90;6.30;;;18.40;99.90;;;;;;2607040;54;20445;-75
2022/07/31 04:02:54;;;;;;;6.97;6.33;;;18.60;99.90;;;;;;2607054;54;20432;-74
2022/07/31 04:05:20;;;;;;;6.80;6.20;;;18.70;99.90;;;;;;2605647;54;21916;-74
2022/07/31 04:07:45;;;;;;;6.30;5.90;;;19.00;99.90;;;;;;2608413;47;20987;-74
2022/07/31 04:10:11;;;;;;;6.93;6.33;;;19.10;98.20;;;;;;2607397;54;20261;-74
2022/07/31 04:12:37;;;;;;;5.70;5.23;;;19.20;95.80;;;;;;2606943;54;20695;-74
2022/07/31 04:15:03;;;;;;;8.27;5.93;;;19.30;94.00;;;;;;2607732;46;21450;-74
2022/07/31 04:17:29;;;;;;;6.17;5.77;;;19.40;92.50;;;;;;2607704;54;20177;-74
2022/07/31 04:19:55;;;;;;;5.90;5.43;;;19.40;92.10;;;;;;2606657;31;20866;-74
2022/07/31 04:22:21;;;;;;;6.30;5.87;;;19.50;91.40;;;;;;2607540;54;20255;-75
2022/07/31 04:24:47;;;;;;;6.03;5.60;;;19.50;90.90;;;;;;2608143;39;20536;-74
2022/07/31 04:27:18;;;;;;;6.50;5.90;;;19.60;89.30;;;;;;2608263;39;20253;-74
2022/07/31 04:29:44;;;;;;;6.77;5.90;;;19.70;87.00;;;;;;2607858;47;20469;-74
2022/07/31 04:32:10;;;;;;;8.07;7.17;;;19.70;84.60;;;;;;2607630;47;20610;-74
2022/07/31 04:34:36;;;;;;;5.67;5.23;;;19.80;81.70;;;;;;2607079;39;20564;-74
2022/07/31 04:37:02;;;;;;;5.83;5.20;;;19.80;82.10;;;;;;2607560;39;20886;-74
2022/07/31 04:39:28;;;;;;;8.43;5.40;;;19.80;77.80;;;;;;2607438;54;20509;-74
2022/07/31 04:41:55;;;;;;;6.27;5.60;;;19.90;77.30;;;;;;2606611;54;20423;-75
2022/07/31 04:44:21;;;;;;;6.70;5.50;;;20.00;73.40;;;;;;2607087;54;21650;-75
2022/07/31 04:46:47;;;;;;;6.60;6.10;;;19.90;75.80;;;;;;2607967;54;20432;-74
2022/07/31 04:49:14;;;;;;;5.33;5.03;;;20.00;76.40;;;;;;2606438;39;20489;-75
2022/07/31 04:51:41;;;;;;;7.63;5.63;;;19.90;77.90;;;;;;2606570;54;21053;-74
2022/07/31 04:54:08;;;;;;;9.30;5.40;;;19.90;82.30;;;;;;2605929;47;20431;-75
2022/07/31 04:56:40;;;;;;;6.33;5.73;;;19.90;81.00;;;;;;2608158;39;20804;-74
2022/07/31 04:59:08;;;;;;;5.70;5.30;;;20.00;76.30;;;;;;2606754;54;20432;-73
2022/07/31 05:01:34;;;;;;;6.53;5.87;;;20.10;74.20;;;;;;2605815;54;20460;-74
2022/07/31 05:04:00;;;;;;;7.67;6.00;;;20.20;72.20;;;;;;2607577;54;20435;-73
2022/07/31 05:06:33;;;;;;;6.30;5.80;;;20.30;71.50;;;;;;2608255;54;20504;-73
2022/07/31 05:08:59;;;;;;;7.90;6.57;;;20.30;69.30;;;;;;2607909;54;20423;-74
2022/07/31 05:11:25;;;;;;;6.60;6.20;;;20.30;69.60;;;;;;2606366;54;20419;-73
2022/07/31 05:13:53;;;;;;;6.63;6.10;;;20.50;66.70;;;;;;2607632;54;20562;-73
2022/07/31 05:16:19;;;;;;;10.50;5.63;;;20.50;67.60;;;;;;2606086;31;20373;-74
2022/07/31 05:18:46;;;;;;;6.37;5.97;;;20.60;67.20;;;;;;2607641;54;20552;-73
2022/07/31 05:21:13;;;;;;;6.80;6.20;;;20.70;65.40;;;;;;2606173;54;20433;-75
2022/07/31 05:23:40;;;;;;;6.87;6.23;;;20.60;69.30;;;;;;2606425;54;20429;-75
2022/07/31 05:26:07;;;;;;;6.97;6.27;;;20.70;70.20;;;;;;2607690;54;20431;-76
2022/07/31 05:28:32;;;;;;;7.40;6.80;;;20.60;69.10;;;;;;2607364;54;20463;-75
2022/07/31 05:30:59;;;;;;;7.20;6.67;;;20.60;71.60;;;;;;2605284;54;20415;-75
2022/07/31 05:33:24;;;;;;;7.70;6.67;;;20.50;73.80;;;;;;2607941;39;20587;-76
2022/07/31 05:35:50;;;;;;;7.20;6.67;;;20.50;76.70;;;;;;2605817;47;20438;-76
2022/07/31 05:38:15;;;;;;;6.80;6.30;;;20.40;77.10;;;;;;2608255;39;20400;-75
2022/07/31 05:40:41;;;;;;;8.47;6.33;;;20.40;79.90;;;;;;2606179;54;20155;-76
2022/07/31 05:43:07;;;;;;;7.57;6.87;;;20.50;81.00;;;;;;2607344;39;20194;-75
2022/07/31 05:45:33;;;;;;;7.63;6.80;;;20.40;78.70;;;;;;2608274;53;20254;-76
2022/07/31 05:47:58;;;;;;;7.10;6.60;;;20.50;82.40;;;;;;2606308;54;20454;-75
2022/07/31 05:50:24;;;;;;;7.50;6.90;;;20.60;78.50;;;;;;2606285;47;20169;-74
2022/07/31 05:52:50;;;;;;;7.13;6.63;;;20.50;80.90;;;;;;2608047;39;20345;-75
2022/07/31 05:55:15;;;;;;;7.70;7.20;;;20.60;80.30;;;;;;2604954;54;20166;-76
2022/07/31 05:57:41;;;;;;;8.00;7.27;;;20.60;81.70;;;;;;2606236;39;20252;-75
2022/07/31 06:00:08;;;;;;;7.83;7.23;;;20.50;81.60;;;;;;2605397;54;20238;-75
2022/07/31 06:02:34;;;;;;;8.00;7.23;;;20.50;86.10;;;;;;2607753;47;20457;-75
2022/07/31 06:05:00;;;;;;;7.60;7.00;;;20.50;84.40;;;;;;2606744;54;20438;-75
2022/07/31 06:07:26;;;;;;;8.00;6.73;;;20.50;86.70;;;;;;2604659;39;20845;-75
2022/07/31 06:09:52;;;;;;;9.10;7.60;;;20.50;85.10;;;;;;2604107;47;20403;-76
2022/07/31 06:12:18;;;;;;;8.13;7.33;;;20.60;85.80;;;;;;2603396;54;20188;-75
2022/07/31 06:14:44;;;;;;;10.60;8.23;;;20.60;85.70;;;;;;2604678;54;20175;-75
2022/07/31 06:17:10;;;;;;;10.47;8.07;;;20.50;85.70;;;;;;2605756;47;20544;-75
2022/07/31 06:19:36;;;;;;;9.17;7.50;;;20.70;90.10;;;;;;2605187;54;20449;-75
2022/07/31 06:22:02;;;;;;;9.80;8.90;;;20.60;88.10;;;;;;2607102;54;20549;-74
2022/07/31 06:24:28;;;;;;;8.47;7.70;;;20.60;86.50;;;;;;2603728;47;21349;-76
2022/07/31 06:26:58;;;;;;;9.13;8.33;;;21.10;86.10;;;;;;2604646;31;20981;-75
2022/07/31 06:29:23;;;;;;;9.53;8.70;;;21.20;79.40;;;;;;2605568;54;20159;-74
2022/07/31 06:31:49;;;;;;;8.67;7.60;;;21.10;77.40;;;;;;2605242;47;20530;-75
2022/07/31 06:34:14;;;;;;;8.30;7.50;;;21.40;71.90;;;;;;2607131;54;20723;-76
2022/07/31 06:36:40;;;;;;;9.20;8.30;;;21.80;69.40;;;;;;2621742;36;20163;-75
2022/07/31 06:39:06;;;;;;;9.07;8.13;;;22.50;57.10;;;;;;2622271;36;20250;-75
2022/07/31 06:41:43;;;;;;;8.07;7.47;;;22.40;58.20;;;;;;2606424;54;20178;-76
2022/07/31 06:44:19;;;;;;;9.50;8.70;;;22.00;59.60;;;;;;2606605;31;20428;-75
2022/07/31 06:46:45;;;;;;;10.10;9.10;;;21.50;64.40;;;;;;2606210;54;20419;-75
2022/07/31 06:49:12;;;;;;;10.23;9.40;;;21.40;74.00;;;;;;2606927;54;20412;-76
2022/07/31 06:51:37;;;;;;;10.10;9.00;;;21.40;76.10;;;;;;2605421;54;20469;-76
2022/07/31 06:54:07;;;;;;;10.60;9.70;;;21.40;77.40;;;;;;2605706;46;21236;-76
2022/07/31 06:56:34;;;;;;;9.73;8.83;;;21.40;77.70;;;;;;2604140;54;20171;-76
2022/07/31 06:59:00;;;;;;;10.77;9.67;;;21.40;80.40;;;;;;2601579;47;21127;-75
2022/07/31 07:01:26;;;;;;;11.10;9.30;;;21.40;80.50;;;;;;2604655;54;20439;-75
2022/07/31 07:03:52;;;;;;;14.30;9.87;;;21.20;85.00;;;;;;2605323;54;20436;-76
2022/07/31 07:06:18;;;;;;;14.20;9.20;;;21.20;85.40;;;;;;2603739;39;20530;-76
2022/07/31 07:08:44;;;;;;;9.97;9.17;;;21.40;83.60;;;;;;2602837;46;20451;-76
2022/07/31 07:11:10;;;;;;;9.47;8.67;;;21.30;84.50;;;;;;2602888;54;21043;-74
2022/07/31 07:13:35;;;;;;;9.50;8.70;;;21.30;85.20;;;;;;2606345;54;20162;-75
2022/07/31 07:16:01;;;;;;;9.47;8.57;;;21.50;85.10;;;;;;2606548;54;20284;-75
2022/07/31 07:18:26;;;;;;;10.47;9.47;;;21.50;85.40;;;;;;2608255;54;20170;-76
2022/07/31 07:20:53;;;;;;;8.30;7.70;;;21.50;82.60;;;;;;2606645;39;20251;-75
2022/07/31 07:23:20;;;;;;;10.90;8.30;;;21.30;82.40;;;;;;2605946;54;20708;-74
2022/07/31 07:25:46;;;;;;;9.80;8.63;;;21.10;84.30;;;;;;2604624;54;20989;-73
2022/07/31 07:28:12;;;;;;;12.60;8.67;;;21.10;84.30;;;;;;2608217;54;20440;-74
2022/07/31 07:30:38;;;;;;;11.00;8.17;;;21.20;86.60;;;;;;2605302;39;20546;-75
2022/07/31 07:33:04;;;;;;;8.00;7.37;;;21.20;90.60;;;;;;2607630;47;20569;-76
2022/07/31 07:35:30;;;;;;;9.23;8.40;;;21.00;96.50;;;;;;2608533;54;20177;-76
2022/07/31 07:37:57;;;;;;;9.07;8.27;;;20.90;99.90;;;;;;2608806;39;20895;-76
2022/07/31 07:40:23;;;;;;;7.60;7.10;;;20.80;99.90;;;;;;2608377;54;20423;-75
2022/07/31 07:42:49;;;;;;;8.20;7.50;;;20.50;99.90;;;;;;2607268;39;20719;-75
2022/07/31 07:45:15;;;;;;;7.30;6.80;;;20.70;99.90;;;;;;2607446;39;21023;-75
2022/07/31 07:47:41;;;;;;;6.63;6.20;;;20.90;99.90;;;;;;2607984;47;20169;-75
2022/07/31 07:50:08;;;;;;;7.63;7.03;;;21.00;99.90;;;;;;2607865;47;20555;-74
2022/07/31 07:52:34;;;;;;;8.10;7.43;;;20.90;96.70;;;;;;2606374;54;21069;-76
2022/07/31 07:55:04;;;;;;;6.23;5.83;;;21.50;98.70;;;;;;2607660;39;20454;-74
2022/07/31 07:57:30;;;;;;;8.70;7.20;;;21.70;91.50;;;;;;2608555;54;20530;-75
2022/07/31 07:59:59;;;;;;;8.63;6.27;;;22.40;90.40;;;;;;2606458;54;20424;-75
2022/07/31 08:02:25;;;;;;;6.63;6.13;;;22.40;83.60;;;;;;2608276;54;20459;-74
2022/07/31 08:04:51;;;;;;;6.63;6.13;;;21.80;80.60;;;;;;2606457;54;20412;-73
2022/07/31 08:07:25;;;;;;;6.90;5.67;;;21.30;81.50;;;;;;2606154;54;20964;-73
2022/07/31 08:09:50;;;;;;;6.27;5.73;;;21.50;87.80;;;;;;2606632;54;20171;-75
2022/07/31 08:12:16;;;;;;;5.90;5.30;;;21.60;89.80;;;;;;2607386;54;20437;-74
2022/07/31 08:14:42;;;;;;;6.03;5.53;;;21.30;89.50;;;;;;2607299;31;20352;-75
2022/07/31 08:17:11;;;;;;;5.80;5.30;;;21.60;92.70;;;;;;2607095;54;20155;-75
2022/07/31 08:19:37;;;;;;;7.17;6.47;;;22.40;88.10;;;;;;2605495;47;20166;-75
2022/07/31 08:22:02;;;;;;;5.87;5.47;;;22.00;77.00;;;;;;2607936;39;20515;-74
2022/07/31 08:24:28;;;;;;;7.80;6.30;;;21.50;78.30;;;;;;2605942;54;20310;-76
2022/07/31 08:29:38;;;;;;;5.17;4.80;;;21.80;84.20;;;;;;2607840;54;20278;-74
2022/07/31 08:32:04;;;;;;;5.63;4.93;;;21.40;86.60;;;;;;2611745;39;20853;-79
2022/07/31 08:34:31;;;;;;;5.40;5.00;;;21.60;90.30;;;;;;2614019;54;20173;-78
2022/07/31 08:36:57;;;;;;;5.73;5.03;;;21.40;90.10;;;;;;2611675;54;20496;-78
2022/07/31 08:39:22;;;;;;;5.27;4.90;;;21.40;91.10;;;;;;2609086;54;20445;-76
2022/07/31 08:41:48;;;;;;;8.03;4.80;;;21.40;93.10;;;;;;2611623;47;20442;-76
2022/07/31 08:44:14;;;;;;;5.23;4.73;;;21.90;92.10;;;;;;2615588;54;20201;-81
2022/07/31 08:46:40;;;;;;;4.73;4.43;;;21.50;93.20;;;;;;2616710;47;20175;-81
2022/07/31 08:49:08;;;;;;;5.27;4.77;;;21.50;94.60;;;;;;2610876;54;20150;-81
2022/07/31 08:51:36;;;;;;;5.10;4.80;;;21.30;97.70;;;;;;2611236;54;20295;-80
2022/07/31 08:54:06;;;;;;;6.03;5.53;;;21.10;99.80;;;;;;2610537;47;20440;-81
2022/07/31 08:56:39;;;;;;;5.07;4.10;;;21.30;99.90;;;;;;2607712;54;20444;-80
2022/07/31 08:59:06;;;;;;;4.87;4.57;;;21.30;99.90;;;;;;2608785;39;21036;-81
2022/07/31 09:01:35;;;;;;;5.00;4.50;;;21.00;99.90;;;;;;2606464;39;20590;-81
2022/07/31 09:04:01;;;;;;;5.20;4.80;;;20.90;99.90;;;;;;2607540;39;20971;-82
2022/07/31 09:06:27;;;;;;;4.57;4.27;;;21.40;99.90;;;;;;2607623;47;20453;-82
2022/07/31 09:08:55;;;;;;;5.10;4.70;;;21.20;99.90;;;;;;2607579;54;20166;-82
2022/07/31 09:11:22;;;;;;;4.70;4.30;;;21.50;99.90;;;;;;2608380;54;20174;-83
2022/07/31 09:13:58;;;;;;;4.80;4.40;;;21.20;99.90;;;;;;2606335;47;20419;-85
2022/07/31 09:16:24;;;;;;;5.40;4.77;;;21.50;99.90;;;;;;2607316;47;20427;-82
2022/07/31 09:19:01;;;;;;;5.30;4.90;;;21.60;99.90;;;;;;2607326;54;20988;-82
2022/07/31 09:21:41;;;;;;;5.53;4.87;;;21.70;99.90;;;;;;2606531;39;20340;-81
2022/07/31 09:24:09;;;;;;;4.87;4.57;;;21.40;99.90;;;;;;2605661;47;20451;-80
2022/07/31 09:26:36;;;;;;;5.90;4.20;;;21.90;99.90;;;;;;2607980;54;20473;-79
2022/07/31 09:29:07;;;;;;;5.17;4.77;;;21.90;99.80;;;;;;2603612;54;20467;-80
2022/07/31 09:31:34;;;;;;;5.20;4.70;;;22.00;99.60;;;;;;2602021;54;20534;-80
2022/07/31 09:34:00;;;;;;;5.07;4.67;;;21.60;99.90;;;;;;2600787;39;20493;-81
2022/07/31 09:36:27;;;;;;;5.10;4.70;;;22.10;99.90;;;;;;2600694;54;20419;-81
2022/07/31 09:38:55;;;;;;;4.33;3.93;;;21.60;99.20;;;;;;2604609;47;21816;-80
2022/07/31 09:41:22;;;;;;;4.87;4.57;;;21.70;99.90;;;;;;2602055;54;20925;-81
2022/07/31 09:44:02;;;;;;;5.17;4.77;;;22.20;99.60;;;;;;2603925;47;20427;-80
2022/07/31 09:46:41;;;;;;;4.20;3.90;;;21.90;95.30;;;;;;2602365;39;20565;-81
2022/07/31 09:49:07;;;;;;;4.97;4.67;;;22.50;96.30;;;;;;2603578;47;20426;-81
2022/07/31 09:51:41;;;;;;;4.50;4.30;;;22.40;95.10;;;;;;2604037;54;21359;-79
2022/07/31 09:54:07;;;;;;;8.07;4.73;;;22.30;95.00;;;;;;2602885;39;20384;-80
2022/07/31 09:56:34;;;;;;;4.70;4.40;;;22.40;93.90;;;;;;2604442;54;20422;-78
2022/07/31 09:59:00;;;;;;;5.20;4.70;;;22.10;94.20;;;;;;2602448;39;20773;-80
2022/07/31 10:01:26;;;;;;;5.13;4.83;;;22.30;94.10;;;;;;2603919;54;22859;-81
2022/07/31 10:03:54;;;;;;;5.00;4.70;;;22.60;90.70;;;;;;2604588;39;20792;-79
2022/07/31 10:06:24;;;;;;;5.70;5.30;;;22.10;91.70;;;;;;2603973;54;20166;-80
2022/07/31 10:08:50;;;;;;;4.63;4.33;;;21.90;92.30;;;;;;2607597;47;20443;-79
2022/07/31 10:11:18;;;;;;;4.53;4.23;;;22.10;92.70;;;;;;2604997;54;20418;-80
2022/07/31 10:13:48;;;;;;;6.10;3.90;;;22.30;93.80;;;;;;2602674;54;20411;-81
2022/07/31 10:16:14;;;;;;;4.77;4.37;;;22.30;93.50;;;;;;2603754;54;20999;-79
2022/07/31 10:18:44;;;;;;;5.20;4.70;;;22.20;95.10;;;;;;2604818;39;20777;-81
2022/07/31 10:21:14;;;;;;;5.40;4.90;;;22.50;93.40;;;;;;2608123;54;21660;-85
2022/07/31 10:23:42;;;;;;;5.03;4.53;;;22.00;94.20;;;;;;2604645;39;20842;-79
2022/07/31 10:26:09;;;;;;;4.77;4.47;;;22.70;93.20;;;;;;2606516;47;20451;-80
2022/07/31 10:28:38;;;;;;;4.57;3.97;;;22.70;92.30;;;;;;2605961;39;20493;-79
2022/07/31 10:31:04;;;;;;;4.47;4.20;;;22.90;88.00;;;;;;2606532;47;20449;-80
2022/07/31 10:33:31;;;;;;;5.00;4.60;;;23.70;72.50;;;;;;2606926;54;20419;-80
2022/07/31 10:36:07;;;;;;;5.43;4.80;;;23.90;62.70;;;;;;2607645;47;20423;-82
2022/07/31 10:38:42;;;;;;;4.57;4.27;;;23.30;59.40;;;;;;2608102;31;20571;-81
2022/07/31 10:41:24;;;;;;;4.90;4.43;;;23.30;62.70;;;;;;2608476;54;21012;-80
2022/07/31 10:43:59;;;;;;;4.77;4.40;;;24.10;65.70;;;;;;2608553;39;20804;-80
2022/07/31 10:46:30;;;;;;;5.00;4.70;;;23.70;64.70;;;;;;2605024;39;20822;-80
2022/07/31 10:48:57;;;;;;;6.33;5.27;;;23.60;65.80;;;;;;2604752;54;20419;-80
2022/07/31 10:51:22;;;;;;;5.13;4.70;;;23.90;61.50;;;;;;2608028;39;20804;-79
2022/07/31 10:54:00;;;;;;;5.40;5.00;;;23.00;65.60;;;;;;2606484;54;20580;-80
2022/07/31 10:56:26;;;;;;;5.07;4.67;;;23.00;68.80;;;;;;2607423;39;20453;-80
2022/07/31 10:58:56;;;;;;;5.60;5.10;;;23.50;67.60;;;;;;2607085;54;20427;-81
2022/07/31 11:01:22;;;;;;;6.97;5.40;;;23.90;58.70;;;;;;2607962;39;20829;-81
2022/07/31 11:03:53;;;;;;;6.70;6.20;;;24.20;49.70;;;;;;2607098;54;20438;-81
2022/07/31 11:06:20;;;;;;;5.53;5.10;;;24.60;51.90;;;;;;2606344;39;20527;-82
2022/07/31 11:08:48;;;;;;;5.33;4.93;;;24.30;50.70;;;;;;2608306;54;21124;-82
2022/07/31 11:11:15;;;;;;;5.47;5.07;;;24.20;54.30;;;;;;2608621;47;20446;-82
2022/07/31 11:13:56;;;;;;;5.70;5.10;;;24.30;51.00;;;;;;2608904;39;20838;-82
2022/07/31 11:16:22;;;;;;;5.80;5.30;;;23.70;53.50;;;;;;2607307;46;20486;-81
2022/07/31 11:19:03;;;;;;;5.23;4.93;;;24.00;57.40;;;;;;2608598;54;20431;-82
2022/07/31 11:21:40;;;;;;;6.07;5.60;;;24.10;57.20;;;;;;2609107;47;20407;-81
2022/07/31 11:24:18;;;;;;;5.77;5.20;;;24.50;54.10;;;;;;2608673;47;20523;-82
2022/07/31 11:26:55;;;;;;;5.80;5.40;;;24.50;55.30;;;;;;2608929;54;21188;-82
2022/07/31 11:29:29;;;;;;;6.30;5.80;;;24.20;58.90;;;;;;2608551;46;20438;-83
2022/07/31 11:32:04;;;;;;;5.80;5.20;;;24.40;54.50;;;;;;2608279;54;20391;-82
2022/07/31 11:34:31;;;;;;;6.30;5.70;;;24.00;50.90;;;;;;2608662;54;20888;-81
2022/07/31 11:36:59;;;;;;;6.17;5.77;;;24.20;50.10;;;;;;2611276;54;20422;-82
2022/07/31 11:39:27;;;;;;;8.20;5.33;;;24.50;51.80;;;;;;2613085;54;20480;-76
2022/07/31 11:41:53;;;;;;;5.73;5.33;;;24.10;49.50;;;;;;2613341;47;20423;-76
2022/07/31 11:44:21;;;;;;;6.10;5.60;;;24.10;50.70;;;;;;2614381;54;20526;-75
2022/07/31 11:46:49;;;;;;;7.23;6.43;;;24.00;55.80;;;;;;2614403;54;20155;-76
2022/07/31 11:49:22;;;;;;;7.30;6.80;;;24.00;65.60;;;;;;2613592;51;20507;-74
2022/07/31 11:51:48;;;;;;;8.77;8.20;;;23.30;86.20;;;;;;2613466;47;20487;-74
2022/07/31 11:54:24;;;;;;;9.23;8.50;;;23.10;97.10;;;;;;2610977;39;20879;-74
2022/07/31 11:56:53;;;;;;;8.20;7.47;;;23.00;99.90;;;;;;2614480;54;20422;-74
2022/07/31 11:59:33;;;;;;;7.90;7.40;;;22.90;99.90;;;;;;2614160;47;20434;-74
2022/07/31 12:02:09;;;;;;;8.07;7.23;;;23.00;99.90;;;;;;2614404;54;20434;-82
2022/07/31 12:04:36;;;;;;;7.13;6.50;;;23.10;99.90;;;;;;2615056;39;20805;-82
2022/07/31 12:07:07;;;;;;;6.90;6.30;;;22.90;99.90;;;;;;2614587;54;20419;-75
2022/07/31 12:09:35;;;;;;;6.77;6.20;;;22.90;96.30;;;;;;2613185;47;20455;-74
2022/07/31 12:12:04;;;;;;;7.47;6.87;;;22.90;92.00;;;;;;2610011;54;20522;-75
2022/07/31 12:14:38;;;;;;;7.20;6.50;;;23.10;97.00;;;;;;2608175;47;20435;-76
2022/07/31 12:17:06;;;;;;;6.20;5.70;;;23.30;94.60;;;;;;2608878;39;20803;-75
2022/07/31 12:19:35;;;;;;;8.40;5.90;;;23.20;80.80;;;;;;2607799;54;20541;-76
2022/07/31 12:22:15;;;;;;;5.97;5.47;;;23.50;81.70;;;;;;2608411;47;21729;-76
2022/07/31 12:24:42;;;;;;;5.17;4.87;;;23.90;80.00;;;;;;2607938;39;20446;-76
2022/07/31 12:27:08;;;;;;;5.47;5.17;;;24.80;69.60;;;;;;2608569;39;20752;-76
2022/07/31 12:29:35;;;;;;;6.80;6.20;;;24.60;56.30;;;;;;2607925;54;20966;-75
2022/07/31 12:32:02;;;;;;;5.83;5.33;;;25.60;40.40;;;;;;2608353;47;21643;-75
2022/07/31 12:34:42;;;;;;;7.30;4.90;;;25.50;35.50;;;;;;2607490;54;20458;-75
2022/07/31 12:37:13;;;;;;;6.33;5.93;;;25.40;41.70;;;;;;2608510;54;20407;-75
2022/07/31 12:39:51;;;;;;;16.77;6.07;;;24.40;40.00;;;;;;2608299;54;20433;-75
2022/07/31 12:42:30;;;;;;;6.27;5.40;;;25.40;40.80;;;;;;2608538;54;20566;-76
2022/07/31 12:44:59;;;;;;;6.67;6.17;;;25.60;38.80;;;;;;2608662;54;20465;-75
2022/07/31 12:47:29;;;;;;;6.80;6.20;;;24.70;40.80;;;;;;2608511;47;20535;-75
2022/07/31 12:49:55;;;;;;;7.80;6.13;;;24.70;39.40;;;;;;2608457;54;20464;-75
2022/07/31 12:52:20;;;;;;;6.10;5.60;;;24.80;42.10;;;;;;2606989;46;20423;-77